Time,TemperatureF,DewpointF,PressureIn,WindDirection,WindDirectionDegrees,WindSpeedMPH,WindSpeedGustMPH,Humidity,HourlyPrecipIn,Conditions,Clouds,dailyrainin,SolarRadiationWatts/m^2,SoftwareType,DateUTC
2013-04-08 00:03:00,61.0,61.0,-100.00,South,170,5.0,9.0,99,0.00,,,0.00,0.000000,,2013-04-08 10:03:00,
2013-04-08 00:13:00,61.0,61.0,-100.00,South,170,5.0,9.0,99,0.00,,,0.00,0.000000,,2013-04-08 10:13:00,
2013-04-08 00:23:00,61.0,61.0,-100.00,South,170,5.0,9.0,99,0.00,,,0.00,0.000000,,2013-04-08 10:23:00,
2013-04-08 00:32:00,61.0,61.0,-100.00,South,170,5.0,9.0,99,0.00,,,0.00,0.000000,,2013-04-08 10:32:00,
2013-04-08 01:02:00,59.0,59.0,-100.00,SE,141,4.0,9.0,99,0.00,,,0.00,0.000000,,2013-04-08 11:02:00,
2013-04-08 01:12:00,59.0,59.0,-100.00,SE,141,4.0,9.0,99,0.00,,,0.00,0.000000,,2013-04-08 11:12:00,
2013-04-08 01:22:00,59.0,59.0,-100.00,SE,141,4.0,9.0,99,0.00,,,0.00,0.000000,,2013-04-08 11:22:00,
2013-04-08 01:32:00,59.0,59.0,-100.00,SE,141,4.0,9.0,99,0.00,,,0.00,0.000000,,2013-04-08 11:32:00,
2013-04-08 02:02:00,58.0,58.0,-100.00,SSE,159,5.0,8.0,99,0.00,,,0.00,0.000000,,2013-04-08 12:02:00,
2013-04-08 02:12:00,58.0,58.0,-100.00,SSE,159,5.0,8.0,99,0.00,,,0.00,0.000000,,2013-04-08 12:12:00,
2013-04-08 02:22:00,58.0,58.0,-100.00,SSE,159,5.0,8.0,99,0.00,,,0.00,0.000000,,2013-04-08 12:22:00,
2013-04-08 02:32:00,58.0,58.0,-100.00,SSE,159,5.0,8.0,99,0.00,,,0.00,0.000000,,2013-04-08 12:32:00,
2013-04-08 03:02:00,58.0,58.0,-100.00,SSW,193,2.0,8.0,99,0.00,,,0.00,0.000000,,2013-04-08 13:02:00,
2013-04-08 03:12:00,58.0,58.0,-100.00,SSW,193,2.0,8.0,99,0.00,,,0.00,0.000000,,2013-04-08 13:12:00,
2013-04-08 03:22:00,58.0,58.0,-100.00,SSW,193,2.0,8.0,99,0.00,,,0.00,0.000000,,2013-04-08 13:22:00,
2013-04-08 03:32:00,58.0,58.0,-100.00,SSW,193,2.0,8.0,99,0.00,,,0.00,0.000000,,2013-04-08 13:32:00,
2013-04-08 04:02:00,58.0,58.0,-100.00,SSE,156,7.0,9.0,99,0.00,,,0.00,0.000000,,2013-04-08 14:02:00,
2013-04-08 04:12:00,58.0,58.0,-100.00,SSE,156,7.0,9.0,99,0.00,,,0.00,0.000000,,2013-04-08 14:12:00,
2013-04-08 04:22:00,58.0,58.0,-100.00,SSE,156,7.0,9.0,99,0.00,,,0.00,0.000000,,2013-04-08 14:22:00,
2013-04-08 04:32:00,58.0,58.0,-100.00,SSE,156,7.0,9.0,99,0.00,,,0.00,0.000000,,2013-04-08 14:32:00,
2013-04-08 05:02:00,58.0,58.0,-100.00,SSE,149,5.0,11.0,99,0.00,,,0.00,0.000000,,2013-04-08 15:02:00,
2013-04-08 05:12:00,58.0,58.0,-100.00,SSE,149,5.0,11.0,99,0.00,,,0.00,0.000000,,2013-04-08 15:12:00,
2013-04-08 05:22:00,58.0,58.0,-100.00,SSE,149,5.0,11.0,99,0.00,,,0.00,0.000000,,2013-04-08 15:22:00,
2013-04-08 05:33:00,58.0,58.0,-100.00,SSE,149,5.0,11.0,99,0.00,,,0.00,0.000000,,2013-04-08 15:33:00,
2013-04-08 06:03:00,56.0,55.0,-100.00,South,178,6.0,9.0,96,0.00,,,0.00,0.000000,,2013-04-08 16:03:00,
2013-04-08 06:12:00,56.0,55.0,-100.00,South,178,6.0,9.0,96,0.00,,,0.00,0.000000,,2013-04-08 16:12:00,
2013-04-08 06:22:00,56.0,55.0,-100.00,South,178,6.0,9.0,96,0.00,,,0.00,0.000000,,2013-04-08 16:22:00,
2013-04-08 06:32:00,56.0,55.0,-100.00,South,178,6.0,9.0,96,0.00,,,0.00,0.000000,,2013-04-08 16:32:00,
2013-04-08 07:02:00,56.0,54.0,-100.00,SSE,167,1.0,8.0,94,0.00,,,0.00,5.000000,,2013-04-08 17:02:00,
2013-04-08 07:12:00,56.0,54.0,-100.00,SSE,167,1.0,8.0,94,0.00,,,0.00,5.000000,,2013-04-08 17:12:00,
2013-04-08 07:22:00,56.0,54.0,-100.00,SSE,167,1.0,8.0,94,0.00,,,0.00,5.000000,,2013-04-08 17:22:00,
2013-04-08 07:32:00,56.0,54.0,-100.00,SSE,167,1.0,8.0,94,0.00,,,0.00,5.000000,,2013-04-08 17:32:00,
2013-04-08 08:02:00,63.0,56.0,-100.00,South,176,9.0,14.0,79,0.00,,,0.00,203.000000,,2013-04-08 18:02:00,
2013-04-08 08:12:00,63.0,56.0,-100.00,South,176,9.0,14.0,79,0.00,,,0.00,203.000000,,2013-04-08 18:12:00,
2013-04-08 08:22:00,63.0,56.0,-100.00,South,176,9.0,14.0,79,0.00,,,0.00,203.000000,,2013-04-08 18:22:00,
2013-04-08 08:32:00,63.0,56.0,-100.00,South,176,9.0,14.0,79,0.00,,,0.00,203.000000,,2013-04-08 18:32:00,
2013-04-08 08:52:00,69.0,53.0,-100.00,WSW,242,5.0,14.0,56,0.00,,,0.00,505.000000,,2013-04-08 18:52:00,
2013-04-08 09:02:00,69.0,53.0,-100.00,WSW,242,5.0,14.0,56,0.00,,,0.00,505.000000,,2013-04-08 19:02:00,
2013-04-08 09:12:00,69.0,53.0,-100.00,WSW,242,5.0,14.0,56,0.00,,,0.00,505.000000,,2013-04-08 19:12:00,
2013-04-08 09:22:00,69.0,53.0,-100.00,WSW,242,5.0,14.0,56,0.00,,,0.00,505.000000,,2013-04-08 19:22:00,
2013-04-08 09:33:00,69.0,53.0,-100.00,WSW,242,5.0,14.0,56,0.00,,,0.00,505.000000,,2013-04-08 19:33:00,
2013-04-08 09:52:00,71.0,51.0,-100.00,NW,310,5.0,12.0,50,0.00,,,0.00,818.000000,,2013-04-08 19:52:00,
2013-04-08 10:02:00,71.0,51.0,-100.00,NW,310,5.0,12.0,50,0.00,,,0.00,818.000000,,2013-04-08 20:02:00,
2013-04-08 10:12:00,71.0,51.0,-100.00,NW,310,5.0,12.0,50,0.00,,,0.00,818.000000,,2013-04-08 20:12:00,
2013-04-08 10:22:00,71.0,51.0,-100.00,NW,310,5.0,12.0,50,0.00,,,0.00,818.000000,,2013-04-08 20:22:00,
2013-04-08 10:32:00,71.0,51.0,-100.00,NW,310,5.0,12.0,50,0.00,,,0.00,818.000000,,2013-04-08 20:32:00,
2013-04-08 11:02:00,74.0,52.0,-100.00,NNW,328,3.0,11.0,47,0.00,,,0.00,951.000000,,2013-04-08 21:02:00,
2013-04-08 11:12:00,74.0,52.0,-100.00,NNW,328,3.0,11.0,47,0.00,,,0.00,951.000000,,2013-04-08 21:12:00,
2013-04-08 11:22:00,74.0,52.0,-100.00,NNW,328,3.0,11.0,47,0.00,,,0.00,951.000000,,2013-04-08 21:22:00,
2013-04-08 11:32:00,74.0,52.0,-100.00,NNW,328,3.0,11.0,47,0.00,,,0.00,951.000000,,2013-04-08 21:32:00,
2013-04-08 12:02:00,73.0,53.0,-100.00,WNW,282,7.0,14.0,49,0.00,,,0.00,998.000000,,2013-04-08 22:02:00,
2013-04-08 12:12:00,73.0,53.0,-100.00,WNW,282,7.0,14.0,49,0.00,,,0.00,998.000000,,2013-04-08 22:12:00,
2013-04-08 12:22:00,73.0,53.0,-100.00,WNW,282,7.0,14.0,49,0.00,,,0.00,998.000000,,2013-04-08 22:22:00,
2013-04-08 12:32:00,73.0,53.0,-100.00,WNW,282,7.0,14.0,49,0.00,,,0.00,998.000000,,2013-04-08 22:32:00,
2013-04-08 13:02:00,72.0,57.0,-100.00,West,277,9.0,18.0,59,0.00,,,0.00,872.000000,,2013-04-08 23:02:00,
2013-04-08 13:12:00,72.0,57.0,-100.00,West,277,9.0,18.0,59,0.00,,,0.00,872.000000,,2013-04-08 23:12:00,
2013-04-08 13:22:00,72.0,57.0,-100.00,West,277,9.0,18.0,59,0.00,,,0.00,872.000000,,2013-04-08 23:22:00,
2013-04-08 13:32:00,72.0,57.0,-100.00,West,277,9.0,18.0,59,0.00,,,0.00,872.000000,,2013-04-08 23:32:00,
2013-04-08 14:02:00,69.0,58.0,-100.00,WNW,302,10.0,18.0,67,0.00,,,0.00,309.000000,,2013-04-09 00:02:00,
2013-04-08 14:12:00,69.0,58.0,-100.00,WNW,302,10.0,18.0,67,0.00,,,0.00,309.000000,,2013-04-09 00:12:00,
2013-04-08 14:22:00,69.0,58.0,-100.00,WNW,302,10.0,18.0,67,0.00,,,0.00,309.000000,,2013-04-09 00:22:00,
2013-04-08 14:32:00,69.0,58.0,-100.00,WNW,302,10.0,18.0,67,0.00,,,0.00,309.000000,,2013-04-09 00:32:00,
2013-04-08 15:02:00,69.0,60.0,-100.00,WNW,288,8.0,18.0,74,0.00,,,0.00,195.000000,,2013-04-09 01:02:00,
2013-04-08 15:12:00,69.0,60.0,-100.00,WNW,288,8.0,18.0,74,0.00,,,0.00,195.000000,,2013-04-09 01:12:00,
2013-04-08 15:22:00,69.0,60.0,-100.00,WNW,288,8.0,18.0,74,0.00,,,0.00,195.000000,,2013-04-09 01:22:00,
2013-04-08 15:32:00,69.0,60.0,-100.00,WNW,288,8.0,18.0,74,0.00,,,0.00,195.000000,,2013-04-09 01:32:00,
2013-04-08 16:02:00,67.0,60.0,-100.00,NW,316,9.0,15.0,78,0.00,,,0.00,141.000000,,2013-04-09 02:02:00,
2013-04-08 16:12:00,67.0,60.0,-100.00,NW,316,9.0,15.0,78,0.00,,,0.00,141.000000,,2013-04-09 02:12:00,
2013-04-08 16:22:00,67.0,60.0,-100.00,NW,316,9.0,15.0,78,0.00,,,0.00,141.000000,,2013-04-09 02:22:00,
2013-04-08 16:32:00,67.0,60.0,-100.00,NW,316,9.0,15.0,78,0.00,,,0.00,141.000000,,2013-04-09 02:32:00,
2013-04-08 17:02:00,69.0,57.0,-100.00,WNW,303,6.0,16.0,65,0.00,,,0.00,296.000000,,2013-04-09 03:02:00,
2013-04-08 17:12:00,69.0,57.0,-100.00,WNW,303,6.0,16.0,65,0.00,,,0.00,296.000000,,2013-04-09 03:12:00,
2013-04-08 17:21:00,69.0,57.0,-100.00,WNW,303,6.0,16.0,65,0.00,,,0.00,296.000000,,2013-04-09 03:21:00,
2013-04-08 17:32:00,69.0,57.0,-100.00,WNW,303,6.0,16.0,65,0.00,,,0.00,296.000000,,2013-04-09 03:32:00,
2013-04-08 18:02:00,67.0,62.0,-100.00,WSW,253,2.0,10.0,83,0.00,,,0.00,69.000000,,2013-04-09 04:02:00,
2013-04-08 18:13:00,67.0,62.0,-100.00,WSW,253,2.0,10.0,83,0.00,,,0.00,69.000000,,2013-04-09 04:13:00,
2013-04-08 18:22:00,67.0,62.0,-100.00,WSW,253,2.0,10.0,83,0.00,,,0.00,69.000000,,2013-04-09 04:22:00,
2013-04-08 18:32:00,67.0,62.0,-100.00,WSW,253,2.0,10.0,83,0.00,,,0.00,69.000000,,2013-04-09 04:32:00,
2013-04-08 19:02:00,64.0,64.0,-100.00,WNW,301,1.0,8.0,99,0.00,,,0.00,12.000000,,2013-04-09 05:02:00,
2013-04-08 19:12:00,64.0,64.0,-100.00,WNW,301,1.0,8.0,99,0.00,,,0.00,12.000000,,2013-04-09 05:12:00,
2013-04-08 19:22:00,64.0,64.0,-100.00,WNW,301,1.0,8.0,99,0.00,,,0.00,12.000000,,2013-04-09 05:22:00,
2013-04-08 19:32:00,64.0,64.0,-100.00,WNW,301,1.0,8.0,99,0.00,,,0.00,12.000000,,2013-04-09 05:32:00,
2013-04-08 20:02:00,62.0,62.0,-100.00,WSW,239,0.0,5.0,99,0.00,,,0.00,0.000000,,2013-04-09 06:02:00,
2013-04-08 20:12:00,62.0,62.0,-100.00,WSW,239,0.0,5.0,99,0.00,,,0.00,0.000000,,2013-04-09 06:12:00,
2013-04-08 20:22:00,62.0,62.0,-100.00,WSW,239,0.0,5.0,99,0.00,,,0.00,0.000000,,2013-04-09 06:22:00,
2013-04-08 20:32:00,62.0,62.0,-100.00,WSW,239,0.0,5.0,99,0.00,,,0.00,0.000000,,2013-04-09 06:32:00,
2013-04-08 21:02:00,62.0,62.0,-100.00,WSW,257,2.0,7.0,99,0.00,,,0.00,0.000000,,2013-04-09 07:02:00,
2013-04-08 21:12:00,62.0,62.0,-100.00,WSW,257,2.0,7.0,99,0.00,,,0.00,0.000000,,2013-04-09 07:12:00,
2013-04-08 21:22:00,62.0,62.0,-100.00,WSW,257,2.0,7.0,99,0.00,,,0.00,0.000000,,2013-04-09 07:22:00,
2013-04-08 21:32:00,62.0,62.0,-100.00,WSW,257,2.0,7.0,99,0.00,,,0.00,0.000000,,2013-04-09 07:32:00,
2013-04-08 22:02:00,63.0,63.0,-100.00,SSE,156,0.0,5.0,99,0.00,,,0.00,0.000000,,2013-04-09 08:02:00,
2013-04-08 22:12:00,63.0,63.0,-100.00,SSE,156,0.0,5.0,99,0.00,,,0.00,0.000000,,2013-04-09 08:12:00,
2013-04-08 22:22:00,63.0,63.0,-100.00,SSE,156,0.0,5.0,99,0.00,,,0.00,0.000000,,2013-04-09 08:22:00,
2013-04-08 22:32:00,63.0,63.0,-100.00,SSE,156,0.0,5.0,99,0.00,,,0.00,0.000000,,2013-04-09 08:32:00,
2013-04-08 23:02:00,63.0,63.0,-100.00,North,4,0.0,4.0,99,0.00,,,0.00,0.000000,,2013-04-09 09:02:00,
2013-04-08 23:12:00,63.0,63.0,-100.00,North,4,0.0,4.0,99,0.00,,,0.00,0.000000,,2013-04-09 09:12:00,
2013-04-08 23:22:00,63.0,63.0,-100.00,North,4,0.0,4.0,99,0.00,,,0.00,0.000000,,2013-04-09 09:22:00,
2013-04-08 23:32:00,63.0,63.0,-100.00,North,4,0.0,4.0,99,0.00,,,0.00,0.000000,,2013-04-09 09:32:00,